Terminal Aerodrome Forecast
Issued by NWS

Home | Current Version | Previous Version | Text Only | Print | Product List | Glossary On
Versions: 1 2 3 4 5 6 7 8 9 10 11 12 13 14
000
FTUS45 KPSR 181100
TAFBLH
TAF
KBLH 181140Z 1812/1912 18006KT P6SM SCT120 BKN200
     FM181700 18012G22KT P6SM VCSH FEW090 SCT120 BKN200
     FM182300 16007KT P6SM VCSH SCT090 SCT120 BKN200
     FM190500 31006KT P6SM FEW080 BKN200=

USA.gov is the U.S. government's official web portal to all federal, state and local government web resources and services.